sensor_id;sensor_type;location;lat;lon;timestamp;P1;P4;P2;P0;N10;N4;N25;N1;N05;TS
67700;SPS30;55380;54.156;18.708;2023-05-07T00:00:00;13.4;;13.4;12.7;;;;;;
67700;SPS30;55380;54.156;18.708;2023-05-07T00:02:00;12.6;;12.6;11.9;;;;;;
67700;SPS30;55380;54.156;18.708;2023-05-07T00:04:00;12.8;;12.8;12.1;;;;;;
67700;SPS30;55380;54.156;18.708;2023-05-07T00:06:00;12.5;;12.5;11.9;;;;;;
67700;SPS30;55380;54.156;18.708;2023-05-07T00:08:00;12.7;;12.7;12.0;;;;;;
67700;SPS30;55380;54.156;18.708;2023-05-07T00:10:00;13.2;;13.2;12.5;;;;;;
67700;SPS30;55380;54.156;18.708;2023-05-07T00:12:00;12.9;;12.9;12.2;;;;;;
67700;SPS30;55380;54.156;18.708;2023-05-07T00:14:00;13.3;;13.3;12.6;;;;;;
67700;SPS30;55380;54.156;18.708;2023-05-07T00:16:00;12.4;;12.4;11.7;;;;;;
67700;SPS30;55380;54.156;18.708;2023-05-07T00:18:00;11.9;;11.9;11.2;;;;;;
67700;SPS30;55380;54.156;18.708;2023-05-07T00:20:00;11.8;;11.8;11.2;;;;;;
67700;SPS30;55380;54.156;18.708;2023-05-07T00:22:00;12.3;;12.3;11.6;;;;;;
67700;SPS30;55380;54.156;18.708;2023-05-07T00:24:00;12.5;;12.5;11.8;;;;;;
67700;SPS30;55380;54.156;18.708;2023-05-07T00:26:00;12.6;;12.6;11.9;;;;;;
67700;SPS30;55380;54.156;18.708;2023-05-07T00:28:00;12.3;;12.3;11.7;;;;;;
67700;SPS30;55380;54.156;18.708;2023-05-07T00:30:00;12.5;;12.5;11.8;;;;;;
67700;SPS30;55380;54.156;18.708;2023-05-07T00:32:00;12.0;;12.0;11.4;;;;;;
67700;SPS30;55380;54.156;18.708;2023-05-07T00:34:00;12.1;;12.1;11.4;;;;;;
67700;SPS30;55380;54.156;18.708;2023-05-07T00:36:00;12.3;;12.3;11.6;;;;;;
67700;SPS30;55380;54.156;18.708;2023-05-07T00:38:00;13.1;;13.1;12.4;;;;;;
67700;SPS30;55380;54.156;18.708;2023-05-07T00:40:00;12.5;;12.5;11.8;;;;;;
67700;SPS30;55380;54.156;18.708;2023-05-07T00:42:00;12.5;;12.5;11.8;;;;;;
67700;SPS30;55380;54.156;18.708;2023-05-07T00:44:00;13.1;;13.1;12.4;;;;;;
67700;SPS30;55380;54.156;18.708;2023-05-07T00:46:00;12.9;;12.9;12.2;;;;;;
67700;SPS30;55380;54.156;18.708;2023-05-07T00:48:00;11.8;;11.8;11.1;;;;;;
67700;SPS30;55380;54.156;18.708;2023-05-07T00:50:00;11.3;;11.3;10.7;;;;;;
67700;SPS30;55380;54.156;18.708;2023-05-07T00:52:00;11.5;;11.5;10.9;;;;;;
67700;SPS30;55380;54.156;18.708;2023-05-07T00:54:01;12.0;;12.0;11.3;;;;;;
67700;SPS30;55380;54.156;18.708;2023-05-07T00:56:00;11.9;;11.8;11.1;;;;;;
67700;SPS30;55380;54.156;18.708;2023-05-07T00:58:00;11.7;;11.7;11.0;;;;;;
67700;SPS30;55380;54.156;18.708;2023-05-07T01:00:00;11.6;;11.6;11.0;;;;;;
67700;SPS30;55380;54.156;18.708;2023-05-07T01:02:00;12.1;;12.1;11.4;;;;;;
67700;SPS30;55380;54.156;18.708;2023-05-07T01:04:00;12.3;;12.3;11.6;;;;;;
67700;SPS30;55380;54.156;18.708;2023-05-07T01:06:00;12.4;;12.4;11.8;;;;;;
67700;SPS30;55380;54.156;18.708;2023-05-07T01:08:00;13.0;;13.0;12.3;;;;;;
67700;SPS30;55380;54.156;18.708;2023-05-07T01:10:00;13.1;;13.1;12.4;;;;;;
67700;SPS30;55380;54.156;18.708;2023-05-07T01:12:00;12.5;;12.5;11.7;;;;;;
67700;SPS30;55380;54.156;18.708;2023-05-07T01:14:00;12.5;;12.5;11.8;;;;;;
67700;SPS30;55380;54.156;18.708;2023-05-07T01:16:00;12.9;;12.9;12.2;;;;;;
67700;SPS30;55380;54.156;18.708;2023-05-07T01:18:00;12.6;;12.6;11.9;;;;;;
67700;SPS30;55380;54.156;18.708;2023-05-07T01:20:00;11.8;;11.8;11.2;;;;;;
67700;SPS30;55380;54.156;18.708;2023-05-07T01:22:02;13.0;;12.9;12.2;;;;;;
67700;SPS30;55380;54.156;18.708;2023-05-07T01:24:00;12.1;;12.0;11.4;;;;;;
67700;SPS30;55380;54.156;18.708;2023-05-07T01:26:00;11.9;;11.9;11.2;;;;;;
67700;SPS30;55380;54.156;18.708;2023-05-07T01:28:00;11.4;;11.4;10.7;;;;;;
67700;SPS30;55380;54.156;18.708;2023-05-07T01:30:00;11.7;;11.7;11.1;;;;;;
67700;SPS30;55380;54.156;18.708;2023-05-07T01:32:00;11.3;;11.3;10.7;;;;;;
67700;SPS30;55380;54.156;18.708;2023-05-07T01:34:00;11.1;;11.1;10.5;;;;;;
67700;SPS30;55380;54.156;18.708;2023-05-07T01:36:00;11.7;;11.7;11.0;;;;;;
67700;SPS30;55380;54.156;18.708;2023-05-07T01:38:00;11.9;;11.9;11.2;;;;;;
67700;SPS30;55380;54.156;18.708;2023-05-07T01:40:01;11.9;;11.9;11.2;;;;;;
67700;SPS30;55380;54.156;18.708;2023-05-07T01:42:00;11.3;;11.3;10.7;;;;;;
67700;SPS30;55380;54.156;18.708;2023-05-07T01:44:00;11.6;;11.6;11.0;;;;;;
67700;SPS30;55380;54.156;18.708;2023-05-07T01:46:00;10.5;;10.5;9.9;;;;;;
67700;SPS30;55380;54.156;18.708;2023-05-07T01:48:01;11.2;;11.2;10.6;;;;;;
67700;SPS30;55380;54.156;18.708;2023-05-07T01:50:00;11.0;;11.0;10.4;;;;;;
67700;SPS30;55380;54.156;18.708;2023-05-07T01:52:00;11.2;;11.2;10.6;;;;;;
67700;SPS30;55380;54.156;18.708;2023-05-07T01:54:00;11.3;;11.3;10.7;;;;;;
67700;SPS30;55380;54.156;18.708;2023-05-07T01:56:00;10.7;;10.7;10.1;;;;;;
67700;SPS30;55380;54.156;18.708;2023-05-07T01:58:00;10.9;;10.9;10.3;;;;;;
67700;SPS30;55380;54.156;18.708;2023-05-07T02:00:00;10.6;;10.6;10.0;;;;;;
67700;SPS30;55380;54.156;18.708;2023-05-07T02:02:00;10.8;;10.8;10.2;;;;;;
67700;SPS30;55380;54.156;18.708;2023-05-07T02:04:00;10.3;;10.3;9.7;;;;;;
67700;SPS30;55380;54.156;18.708;2023-05-07T02:06:00;10.6;;10.6;10.0;;;;;;
67700;SPS30;55380;54.156;18.708;2023-05-07T02:08:00;10.8;;10.8;10.2;;;;;;
67700;SPS30;55380;54.156;18.708;2023-05-07T02:10:00;10.9;;10.9;10.3;;;;;;
67700;SPS30;55380;54.156;18.708;2023-05-07T02:12:00;10.2;;10.2;9.7;;;;;;
67700;SPS30;55380;54.156;18.708;2023-05-07T02:14:00;10.2;;10.2;9.6;;;;;;
67700;SPS30;55380;54.156;18.708;2023-05-07T02:16:00;10.0;;10.0;9.5;;;;;;
67700;SPS30;55380;54.156;18.708;2023-05-07T02:18:01;10.4;;10.4;9.9;;;;;;
67700;SPS30;55380;54.156;18.708;2023-05-07T02:20:00;10.0;;10.0;9.5;;;;;;
67700;SPS30;55380;54.156;18.708;2023-05-07T02:22:00;10.2;;10.2;9.6;;;;;;
67700;SPS30;55380;54.156;18.708;2023-05-07T02:24:00;9.9;;9.9;9.4;;;;;;
67700;SPS30;55380;54.156;18.708;2023-05-07T02:26:00;9.8;;9.8;9.2;;;;;;
67700;SPS30;55380;54.156;18.708;2023-05-07T02:28:00;10.3;;10.3;9.7;;;;;;
67700;SPS30;55380;54.156;18.708;2023-05-07T02:30:00;10.4;;10.4;9.8;;;;;;
67700;SPS30;55380;54.156;18.708;2023-05-07T02:32:00;10.1;;10.1;9.5;;;;;;
67700;SPS30;55380;54.156;18.708;2023-05-07T02:34:00;10.0;;10.0;9.5;;;;;;
67700;SPS30;55380;54.156;18.708;2023-05-07T02:36:05;9.8;;9.8;9.2;;;;;;
67700;SPS30;55380;54.156;18.708;2023-05-07T02:38:00;9.8;;9.8;9.3;;;;;;
67700;SPS30;55380;54.156;18.708;2023-05-07T02:40:00;10.0;;10.0;9.4;;;;;;
67700;SPS30;55380;54.156;18.708;2023-05-07T02:42:00;9.4;;9.4;8.9;;;;;;
67700;SPS30;55380;54.156;18.708;2023-05-07T02:44:00;9.7;;9.7;9.2;;;;;;
67700;SPS30;55380;54.156;18.708;2023-05-07T02:46:01;10.1;;10.1;9.5;;;;;;
67700;SPS30;55380;54.156;18.708;2023-05-07T02:48:00;9.8;;9.8;9.3;;;;;;
67700;SPS30;55380;54.156;18.708;2023-05-07T02:50:00;9.1;;9.1;8.6;;;;;;
67700;SPS30;55380;54.156;18.708;2023-05-07T02:52:00;9.3;;9.2;8.7;;;;;;
67700;SPS30;55380;54.156;18.708;2023-05-07T02:54:00;9.5;;9.4;8.8;;;;;;
67700;SPS30;55380;54.156;18.708;2023-05-07T02:56:00;9.6;;9.6;9.1;;;;;;
67700;SPS30;55380;54.156;18.708;2023-05-07T02:58:00;8.9;;8.9;8.4;;;;;;
67700;SPS30;55380;54.156;18.708;2023-05-07T03:00:06;9.0;;9.0;8.5;;;;;;
67700;SPS30;55380;54.156;18.708;2023-05-07T03:02:00;8.8;;8.8;8.4;;;;;;
67700;SPS30;55380;54.156;18.708;2023-05-07T03:04:00;8.7;;8.7;8.2;;;;;;
67700;SPS30;55380;54.156;18.708;2023-05-07T03:06:00;8.5;;8.5;8.1;;;;;;
67700;SPS30;55380;54.156;18.708;2023-05-07T03:08:00;8.5;;8.5;8.0;;;;;;
67700;SPS30;55380;54.156;18.708;2023-05-07T03:10:00;8.9;;8.9;8.4;;;;;;
67700;SPS30;55380;54.156;18.708;2023-05-07T03:12:00;9.1;;9.1;8.6;;;;;;
67700;SPS30;55380;54.156;18.708;2023-05-07T03:14:00;8.2;;8.2;7.7;;;;;;
67700;SPS30;55380;54.156;18.708;2023-05-07T03:16:00;9.3;;9.3;8.8;;;;;;
67700;SPS30;55380;54.156;18.708;2023-05-07T03:18:00;9.0;;9.0;8.5;;;;;;
67700;SPS30;55380;54.156;18.708;2023-05-07T03:20:00;9.0;;9.0;8.5;;;;;;
67700;SPS30;55380;54.156;18.708;2023-05-07T03:22:00;8.9;;8.8;8.4;;;;;;
67700;SPS30;55380;54.156;18.708;2023-05-07T03:24:00;9.0;;9.0;8.5;;;;;;
67700;SPS30;55380;54.156;18.708;2023-05-07T03:26:00;9.1;;9.1;8.6;;;;;;
67700;SPS30;55380;54.156;18.708;2023-05-07T03:28:00;9.2;;9.2;8.6;;;;;;
67700;SPS30;55380;54.156;18.708;2023-05-07T03:30:00;9.5;;9.5;8.9;;;;;;
67700;SPS30;55380;54.156;18.708;2023-05-07T03:32:00;9.2;;9.2;8.6;;;;;;
67700;SPS30;55380;54.156;18.708;2023-05-07T03:34:00;9.2;;9.2;8.6;;;;;;
67700;SPS30;55380;54.156;18.708;2023-05-07T03:36:00;9.6;;9.5;9.0;;;;;;
67700;SPS30;55380;54.156;18.708;2023-05-07T03:38:00;9.3;;9.3;8.8;;;;;;
67700;SPS30;55380;54.156;18.708;2023-05-07T03:40:00;9.8;;9.8;9.3;;;;;;
67700;SPS30;55380;54.156;18.708;2023-05-07T03:42:00;9.7;;9.7;9.2;;;;;;
67700;SPS30;55380;54.156;18.708;2023-05-07T03:44:00;9.7;;9.7;9.1;;;;;;
67700;SPS30;55380;54.156;18.708;2023-05-07T03:46:00;9.4;;9.4;8.9;;;;;;
67700;SPS30;55380;54.156;18.708;2023-05-07T03:48:00;9.5;;9.5;9.0;;;;;;
67700;SPS30;55380;54.156;18.708;2023-05-07T03:50:00;10.2;;10.0;9.4;;;;;;
67700;SPS30;55380;54.156;18.708;2023-05-07T03:52:00;10.1;;10.1;9.5;;;;;;
67700;SPS30;55380;54.156;18.708;2023-05-07T03:54:00;9.8;;9.8;9.3;;;;;;
67700;SPS30;55380;54.156;18.708;2023-05-07T03:56:00;10.0;;10.0;9.5;;;;;;
67700;SPS30;55380;54.156;18.708;2023-05-07T03:58:00;9.9;;9.9;9.4;;;;;;
67700;SPS30;55380;54.156;18.708;2023-05-07T04:00:00;10.3;;10.3;9.7;;;;;;
67700;SPS30;55380;54.156;18.708;2023-05-07T04:02:00;10.3;;10.3;9.7;;;;;;
67700;SPS30;55380;54.156;18.708;2023-05-07T04:04:00;10.4;;10.4;9.9;;;;;;
67700;SPS30;55380;54.156;18.708;2023-05-07T04:06:00;9.5;;9.5;9.0;;;;;;
67700;SPS30;55380;54.156;18.708;2023-05-07T04:08:00;9.3;;9.3;8.8;;;;;;
67700;SPS30;55380;54.156;18.708;2023-05-07T04:10:00;9.2;;9.2;8.7;;;;;;
67700;SPS30;55380;54.156;18.708;2023-05-07T04:12:00;9.5;;9.5;8.9;;;;;;
67700;SPS30;55380;54.156;18.708;2023-05-07T04:14:00;9.3;;9.3;8.8;;;;;;
67700;SPS30;55380;54.156;18.708;2023-05-07T04:16:01;9.2;;9.2;8.7;;;;;;
67700;SPS30;55380;54.156;18.708;2023-05-07T04:18:00;9.5;;9.5;9.0;;;;;;
67700;SPS30;55380;54.156;18.708;2023-05-07T04:20:00;9.4;;9.4;8.9;;;;;;
67700;SPS30;55380;54.156;18.708;2023-05-07T04:22:00;9.4;;9.4;8.9;;;;;;
67700;SPS30;55380;54.156;18.708;2023-05-07T04:24:00;9.5;;9.4;8.9;;;;;;
67700;SPS30;55380;54.156;18.708;2023-05-07T04:26:00;9.9;;9.9;9.4;;;;;;
67700;SPS30;55380;54.156;18.708;2023-05-07T04:28:00;10.0;;10.0;9.4;;;;;;
67700;SPS30;55380;54.156;18.708;2023-05-07T04:30:00;9.9;;9.9;9.3;;;;;;
67700;SPS30;55380;54.156;18.708;2023-05-07T04:32:00;9.7;;9.7;9.1;;;;;;
67700;SPS30;55380;54.156;18.708;2023-05-07T04:34:00;10.1;;10.1;9.5;;;;;;
67700;SPS30;55380;54.156;18.708;2023-05-07T04:36:01;9.6;;9.6;9.1;;;;;;
67700;SPS30;55380;54.156;18.708;2023-05-07T04:38:00;9.9;;9.9;9.3;;;;;;
67700;SPS30;55380;54.156;18.708;2023-05-07T04:40:00;9.9;;9.9;9.4;;;;;;
67700;SPS30;55380;54.156;18.708;2023-05-07T04:42:00;9.0;;9.0;8.5;;;;;;
67700;SPS30;55380;54.156;18.708;2023-05-07T04:44:00;9.2;;9.2;8.7;;;;;;
67700;SPS30;55380;54.156;18.708;2023-05-07T04:46:00;9.1;;9.1;8.6;;;;;;
67700;SPS30;55380;54.156;18.708;2023-05-07T04:48:00;9.3;;9.3;8.8;;;;;;
67700;SPS30;55380;54.156;18.708;2023-05-07T04:50:00;8.9;;8.8;8.4;;;;;;
67700;SPS30;55380;54.156;18.708;2023-05-07T04:52:00;9.4;;9.4;8.9;;;;;;
67700;SPS30;55380;54.156;18.708;2023-05-07T04:54:00;9.0;;9.0;8.5;;;;;;
67700;SPS30;55380;54.156;18.708;2023-05-07T04:56:00;9.2;;9.2;8.7;;;;;;
67700;SPS30;55380;54.156;18.708;2023-05-07T04:58:00;10.9;;10.9;10.2;;;;;;
67700;SPS30;55380;54.156;18.708;2023-05-07T05:00:00;10.2;;10.2;9.6;;;;;;
67700;SPS30;55380;54.156;18.708;2023-05-07T05:02:00;10.3;;10.3;9.7;;;;;;
67700;SPS30;55380;54.156;18.708;2023-05-07T05:04:00;10.0;;10.0;9.4;;;;;;
67700;SPS30;55380;54.156;18.708;2023-05-07T05:06:00;10.5;;10.5;9.9;;;;;;
67700;SPS30;55380;54.156;18.708;2023-05-07T05:08:00;9.0;;9.0;8.5;;;;;;
67700;SPS30;55380;54.156;18.708;2023-05-07T05:10:01;7.7;;7.7;7.2;;;;;;
67700;SPS30;55380;54.156;18.708;2023-05-07T05:12:00;8.1;;8.1;7.7;;;;;;
67700;SPS30;55380;54.156;18.708;2023-05-07T05:14:00;8.4;;8.4;8.0;;;;;;
67700;SPS30;55380;54.156;18.708;2023-05-07T05:16:00;7.4;;7.4;7.0;;;;;;
67700;SPS30;55380;54.156;18.708;2023-05-07T05:18:00;8.5;;8.5;8.0;;;;;;
67700;SPS30;55380;54.156;18.708;2023-05-07T05:20:00;8.1;;8.1;7.7;;;;;;
67700;SPS30;55380;54.156;18.708;2023-05-07T05:22:00;7.4;;7.4;6.9;;;;;;
67700;SPS30;55380;54.156;18.708;2023-05-07T05:24:00;9.0;;9.0;8.5;;;;;;
67700;SPS30;55380;54.156;18.708;2023-05-07T05:26:00;9.6;;9.4;8.7;;;;;;
67700;SPS30;55380;54.156;18.708;2023-05-07T05:28:00;9.2;;9.0;8.3;;;;;;
67700;SPS30;55380;54.156;18.708;2023-05-07T05:30:00;8.3;;8.3;7.8;;;;;;
67700;SPS30;55380;54.156;18.708;2023-05-07T05:32:00;8.3;;8.3;7.8;;;;;;
67700;SPS30;55380;54.156;18.708;2023-05-07T05:34:01;8.3;;8.3;7.9;;;;;;
67700;SPS30;55380;54.156;18.708;2023-05-07T05:36:00;6.3;;6.3;6.0;;;;;;
67700;SPS30;55380;54.156;18.708;2023-05-07T05:38:00;8.3;;8.3;7.9;;;;;;
67700;SPS30;55380;54.156;18.708;2023-05-07T05:40:00;6.7;;6.7;6.4;;;;;;
67700;SPS30;55380;54.156;18.708;2023-05-07T05:42:00;6.7;;6.7;6.4;;;;;;
67700;SPS30;55380;54.156;18.708;2023-05-07T05:44:00;6.7;;6.7;6.4;;;;;;
67700;SPS30;55380;54.156;18.708;2023-05-07T05:46:00;8.5;;8.4;8.0;;;;;;
67700;SPS30;55380;54.156;18.708;2023-05-07T05:48:00;6.7;;6.7;6.3;;;;;;
67700;SPS30;55380;54.156;18.708;2023-05-07T05:50:00;6.9;;6.9;6.5;;;;;;
67700;SPS30;55380;54.156;18.708;2023-05-07T05:52:00;6.7;;6.7;6.4;;;;;;
67700;SPS30;55380;54.156;18.708;2023-05-07T05:54:00;6.5;;6.5;6.1;;;;;;
67700;SPS30;55380;54.156;18.708;2023-05-07T05:56:00;7.2;;7.1;6.7;;;;;;
67700;SPS30;55380;54.156;18.708;2023-05-07T05:58:00;7.9;;7.9;7.5;;;;;;
67700;SPS30;55380;54.156;18.708;2023-05-07T06:00:00;7.1;;7.1;6.7;;;;;;
67700;SPS30;55380;54.156;18.708;2023-05-07T06:02:00;7.2;;7.2;6.8;;;;;;
67700;SPS30;55380;54.156;18.708;2023-05-07T06:04:00;6.8;;6.7;6.4;;;;;;
67700;SPS30;55380;54.156;18.708;2023-05-07T06:06:00;7.3;;7.3;6.9;;;;;;
67700;SPS30;55380;54.156;18.708;2023-05-07T06:08:00;6.7;;6.7;6.4;;;;;;
67700;SPS30;55380;54.156;18.708;2023-05-07T06:10:00;6.5;;6.5;6.2;;;;;;
67700;SPS30;55380;54.156;18.708;2023-05-07T06:12:00;6.6;;6.6;6.2;;;;;;
67700;SPS30;55380;54.156;18.708;2023-05-07T06:14:00;6.2;;6.2;5.9;;;;;;
67700;SPS30;55380;54.156;18.708;2023-05-07T06:16:00;6.3;;6.3;5.9;;;;;;
67700;SPS30;55380;54.156;18.708;2023-05-07T06:18:00;7.6;;7.6;7.2;;;;;;
67700;SPS30;55380;54.156;18.708;2023-05-07T06:20:00;6.7;;6.7;6.4;;;;;;
67700;SPS30;55380;54.156;18.708;2023-05-07T06:22:00;6.5;;6.5;6.2;;;;;;
67700;SPS30;55380;54.156;18.708;2023-05-07T06:24:00;7.3;;7.3;6.9;;;;;;
67700;SPS30;55380;54.156;18.708;2023-05-07T06:26:00;8.0;;8.0;7.5;;;;;;
67700;SPS30;55380;54.156;18.708;2023-05-07T06:28:00;7.2;;7.2;6.8;;;;;;
67700;SPS30;55380;54.156;18.708;2023-05-07T06:30:00;6.7;;6.7;6.3;;;;;;
67700;SPS30;55380;54.156;18.708;2023-05-07T06:32:06;6.6;;6.6;6.3;;;;;;
67700;SPS30;55380;54.156;18.708;2023-05-07T06:34:00;6.4;;6.4;6.0;;;;;;
67700;SPS30;55380;54.156;18.708;2023-05-07T06:36:00;5.9;;5.9;5.5;;;;;;
67700;SPS30;55380;54.156;18.708;2023-05-07T06:38:00;6.1;;6.1;5.8;;;;;;
67700;SPS30;55380;54.156;18.708;2023-05-07T06:40:00;6.5;;6.5;6.1;;;;;;
67700;SPS30;55380;54.156;18.708;2023-05-07T06:42:00;5.8;;5.8;5.5;;;;;;
67700;SPS30;55380;54.156;18.708;2023-05-07T06:44:00;6.0;;6.0;5.6;;;;;;
67700;SPS30;55380;54.156;18.708;2023-05-07T06:46:00;6.3;;6.3;6.0;;;;;;
67700;SPS30;55380;54.156;18.708;2023-05-07T06:48:00;5.9;;5.9;5.5;;;;;;
67700;SPS30;55380;54.156;18.708;2023-05-07T06:50:00;7.1;;7.1;6.7;;;;;;
67700;SPS30;55380;54.156;18.708;2023-05-07T06:52:00;8.4;;8.3;7.9;;;;;;
67700;SPS30;55380;54.156;18.708;2023-05-07T06:54:00;5.4;;5.4;5.1;;;;;;
67700;SPS30;55380;54.156;18.708;2023-05-07T06:56:00;5.3;;5.3;5.0;;;;;;
67700;SPS30;55380;54.156;18.708;2023-05-07T06:58:00;5.7;;5.7;5.4;;;;;;
67700;SPS30;55380;54.156;18.708;2023-05-07T07:00:00;5.5;;5.5;5.2;;;;;;
67700;SPS30;55380;54.156;18.708;2023-05-07T07:02:00;5.5;;5.5;5.2;;;;;;
67700;SPS30;55380;54.156;18.708;2023-05-07T07:04:00;5.1;;5.1;4.8;;;;;;
67700;SPS30;55380;54.156;18.708;2023-05-07T07:06:00;5.2;;5.2;4.9;;;;;;
67700;SPS30;55380;54.156;18.708;2023-05-07T07:08:00;5.8;;5.8;5.5;;;;;;
67700;SPS30;55380;54.156;18.708;2023-05-07T07:10:00;6.0;;6.0;5.6;;;;;;
67700;SPS30;55380;54.156;18.708;2023-05-07T07:12:00;5.2;;5.2;4.9;;;;;;
67700;SPS30;55380;54.156;18.708;2023-05-07T07:14:00;5.0;;5.0;4.7;;;;;;
67700;SPS30;55380;54.156;18.708;2023-05-07T07:16:00;4.9;;4.9;4.6;;;;;;
67700;SPS30;55380;54.156;18.708;2023-05-07T07:18:00;4.9;;4.9;4.7;;;;;;
67700;SPS30;55380;54.156;18.708;2023-05-07T07:20:00;6.1;;6.1;5.8;;;;;;
67700;SPS30;55380;54.156;18.708;2023-05-07T07:22:00;5.3;;5.3;5.0;;;;;;
67700;SPS30;55380;54.156;18.708;2023-05-07T07:24:00;4.6;;4.6;4.4;;;;;;
67700;SPS30;55380;54.156;18.708;2023-05-07T07:26:00;4.9;;4.9;4.6;;;;;;
67700;SPS30;55380;54.156;18.708;2023-05-07T07:28:00;5.1;;5.1;4.8;;;;;;
67700;SPS30;55380;54.156;18.708;2023-05-07T07:30:00;5.0;;5.0;4.7;;;;;;
67700;SPS30;55380;54.156;18.708;2023-05-07T07:32:00;4.3;;4.3;4.1;;;;;;
67700;SPS30;55380;54.156;18.708;2023-05-07T07:34:00;4.3;;4.3;4.0;;;;;;
67700;SPS30;55380;54.156;18.708;2023-05-07T07:36:00;4.3;;4.3;4.1;;;;;;
67700;SPS30;55380;54.156;18.708;2023-05-07T07:38:00;4.3;;4.3;4.1;;;;;;
67700;SPS30;55380;54.156;18.708;2023-05-07T07:40:00;4.5;;4.5;4.3;;;;;;
67700;SPS30;55380;54.156;18.708;2023-05-07T07:42:00;4.1;;4.1;3.8;;;;;;
67700;SPS30;55380;54.156;18.708;2023-05-07T07:44:00;4.4;;4.4;4.2;;;;;;
67700;SPS30;55380;54.156;18.708;2023-05-07T07:46:00;4.0;;4.0;3.8;;;;;;
67700;SPS30;55380;54.156;18.708;2023-05-07T07:48:00;3.9;;3.9;3.7;;;;;;
67700;SPS30;55380;54.156;18.708;2023-05-07T07:50:00;3.9;;3.9;3.7;;;;;;
67700;SPS30;55380;54.156;18.708;2023-05-07T07:52:00;4.0;;4.0;3.8;;;;;;
67700;SPS30;55380;54.156;18.708;2023-05-07T07:54:00;3.6;;3.6;3.4;;;;;;
67700;SPS30;55380;54.156;18.708;2023-05-07T07:56:00;4.1;;4.1;3.9;;;;;;
67700;SPS30;55380;54.156;18.708;2023-05-07T07:58:00;4.1;;4.1;3.9;;;;;;
67700;SPS30;55380;54.156;18.708;2023-05-07T08:00:00;3.8;;3.8;3.6;;;;;;
67700;SPS30;55380;54.156;18.708;2023-05-07T08:02:00;2.9;;2.9;2.8;;;;;;
67700;SPS30;55380;54.156;18.708;2023-05-07T08:04:00;3.6;;3.6;3.4;;;;;;
67700;SPS30;55380;54.156;18.708;2023-05-07T08:06:00;3.5;;3.5;3.3;;;;;;
67700;SPS30;55380;54.156;18.708;2023-05-07T08:08:00;4.3;;4.3;4.1;;;;;;
67700;SPS30;55380;54.156;18.708;2023-05-07T08:10:00;3.6;;3.6;3.4;;;;;;
67700;SPS30;55380;54.156;18.708;2023-05-07T08:12:00;3.6;;3.6;3.4;;;;;;
67700;SPS30;55380;54.156;18.708;2023-05-07T08:14:00;3.2;;3.2;3.0;;;;;;
67700;SPS30;55380;54.156;18.708;2023-05-07T08:16:00;3.5;;3.5;3.3;;;;;;
67700;SPS30;55380;54.156;18.708;2023-05-07T08:18:02;3.6;;3.6;3.4;;;;;;
67700;SPS30;55380;54.156;18.708;2023-05-07T08:20:00;3.6;;3.6;3.4;;;;;;
67700;SPS30;55380;54.156;18.708;2023-05-07T08:22:00;3.8;;3.8;3.6;;;;;;
67700;SPS30;55380;54.156;18.708;2023-05-07T08:24:00;3.8;;3.8;3.6;;;;;;
67700;SPS30;55380;54.156;18.708;2023-05-07T08:26:00;3.2;;3.2;3.0;;;;;;
67700;SPS30;55380;54.156;18.708;2023-05-07T08:28:00;3.3;;3.3;3.1;;;;;;
67700;SPS30;55380;54.156;18.708;2023-05-07T08:30:00;3.6;;3.6;3.4;;;;;;
67700;SPS30;55380;54.156;18.708;2023-05-07T08:32:00;3.5;;3.5;3.3;;;;;;
67700;SPS30;55380;54.156;18.708;2023-05-07T08:34:00;2.6;;2.6;2.5;;;;;;
67700;SPS30;55380;54.156;18.708;2023-05-07T08:36:00;2.6;;2.6;2.4;;;;;;
67700;SPS30;55380;54.156;18.708;2023-05-07T08:38:00;2.6;;2.6;2.4;;;;;;
67700;SPS30;55380;54.156;18.708;2023-05-07T08:40:00;2.4;;2.4;2.3;;;;;;
67700;SPS30;55380;54.156;18.708;2023-05-07T08:42:00;2.4;;2.4;2.3;;;;;;
67700;SPS30;55380;54.156;18.708;2023-05-07T08:44:00;2.5;;2.5;2.4;;;;;;
67700;SPS30;55380;54.156;18.708;2023-05-07T08:46:00;2.4;;2.4;2.3;;;;;;
67700;SPS30;55380;54.156;18.708;2023-05-07T08:48:01;2.0;;2.0;1.9;;;;;;
67700;SPS30;55380;54.156;18.708;2023-05-07T08:50:00;2.4;;2.4;2.2;;;;;;
67700;SPS30;55380;54.156;18.708;2023-05-07T08:52:00;2.5;;2.5;2.4;;;;;;
67700;SPS30;55380;54.156;18.708;2023-05-07T08:54:00;2.1;;2.1;2.0;;;;;;
67700;SPS30;55380;54.156;18.708;2023-05-07T08:56:00;2.4;;2.4;2.3;;;;;;
67700;SPS30;55380;54.156;18.708;2023-05-07T08:58:00;2.3;;2.3;2.2;;;;;;
67700;SPS30;55380;54.156;18.708;2023-05-07T09:00:00;2.3;;2.3;2.1;;;;;;
67700;SPS30;55380;54.156;18.708;2023-05-07T09:02:00;2.4;;2.4;2.3;;;;;;
67700;SPS30;55380;54.156;18.708;2023-05-07T09:04:00;3.0;;3.0;2.8;;;;;;
67700;SPS30;55380;54.156;18.708;2023-05-07T09:06:00;3.0;;3.0;2.8;;;;;;
67700;SPS30;55380;54.156;18.708;2023-05-07T09:08:01;2.2;;2.2;2.1;;;;;;
67700;SPS30;55380;54.156;18.708;2023-05-07T09:10:01;2.3;;2.3;2.1;;;;;;
67700;SPS30;55380;54.156;18.708;2023-05-07T09:12:00;2.0;;2.0;1.9;;;;;;
67700;SPS30;55380;54.156;18.708;2023-05-07T09:14:00;2.3;;2.3;2.1;;;;;;
67700;SPS30;55380;54.156;18.708;2023-05-07T09:16:09;3.9;;3.9;3.6;;;;;;
67700;SPS30;55380;54.156;18.708;2023-05-07T09:18:00;7.4;;7.0;6.1;;;;;;
67700;SPS30;55380;54.156;18.708;2023-05-07T09:20:02;3.0;;2.8;2.6;;;;;;
67700;SPS30;55380;54.156;18.708;2023-05-07T09:22:00;2.8;;2.8;2.7;;;;;;
67700;SPS30;55380;54.156;18.708;2023-05-07T09:24:00;2.3;;2.3;2.2;;;;;;
67700;SPS30;55380;54.156;18.708;2023-05-07T09:26:00;2.3;;2.3;2.1;;;;;;
67700;SPS30;55380;54.156;18.708;2023-05-07T09:28:00;2.9;;2.9;2.7;;;;;;
67700;SPS30;55380;54.156;18.708;2023-05-07T09:30:02;2.7;;2.7;2.5;;;;;;
67700;SPS30;55380;54.156;18.708;2023-05-07T09:32:00;2.5;;2.5;2.3;;;;;;
67700;SPS30;55380;54.156;18.708;2023-05-07T09:34:00;2.2;;2.2;2.1;;;;;;
67700;SPS30;55380;54.156;18.708;2023-05-07T09:36:02;2.2;;2.2;2.1;;;;;;
67700;SPS30;55380;54.156;18.708;2023-05-07T09:38:00;2.2;;2.2;2.0;;;;;;
67700;SPS30;55380;54.156;18.708;2023-05-07T09:40:00;2.1;;2.1;2.0;;;;;;
67700;SPS30;55380;54.156;18.708;2023-05-07T09:42:00;2.3;;2.3;2.1;;;;;;
67700;SPS30;55380;54.156;18.708;2023-05-07T09:44:00;2.2;;2.2;2.0;;;;;;
67700;SPS30;55380;54.156;18.708;2023-05-07T09:46:02;2.2;;2.2;2.1;;;;;;
67700;SPS30;55380;54.156;18.708;2023-05-07T09:48:00;2.4;;2.4;2.3;;;;;;
67700;SPS30;55380;54.156;18.708;2023-05-07T09:50:00;2.3;;2.3;2.2;;;;;;
67700;SPS30;55380;54.156;18.708;2023-05-07T09:52:01;4.2;;4.2;4.0;;;;;;
67700;SPS30;55380;54.156;18.708;2023-05-07T09:54:00;26.6;;26.0;24.0;;;;;;
67700;SPS30;55380;54.156;18.708;2023-05-07T09:56:00;3.2;;3.1;2.9;;;;;;
67700;SPS30;55380;54.156;18.708;2023-05-07T09:58:00;2.4;;2.3;2.2;;;;;;
67700;SPS30;55380;54.156;18.708;2023-05-07T10:00:01;2.8;;2.8;2.7;;;;;;
67700;SPS30;55380;54.156;18.708;2023-05-07T10:02:00;2.4;;2.4;2.3;;;;;;
67700;SPS30;55380;54.156;18.708;2023-05-07T10:04:01;2.5;;2.5;2.4;;;;;;
67700;SPS30;55380;54.156;18.708;2023-05-07T10:06:00;2.5;;2.5;2.4;;;;;;
67700;SPS30;55380;54.156;18.708;2023-05-07T10:08:00;2.3;;2.3;2.2;;;;;;
67700;SPS30;55380;54.156;18.708;2023-05-07T10:10:00;2.4;;2.4;2.2;;;;;;
67700;SPS30;55380;54.156;18.708;2023-05-07T10:12:00;2.4;;2.4;2.2;;;;;;
67700;SPS30;55380;54.156;18.708;2023-05-07T10:14:00;2.3;;2.3;2.2;;;;;;
67700;SPS30;55380;54.156;18.708;2023-05-07T10:16:00;2.6;;2.6;2.4;;;;;;
67700;SPS30;55380;54.156;18.708;2023-05-07T10:18:00;2.6;;2.6;2.5;;;;;;
67700;SPS30;55380;54.156;18.708;2023-05-07T10:20:00;2.5;;2.5;2.4;;;;;;
67700;SPS30;55380;54.156;18.708;2023-05-07T10:22:01;2.4;;2.4;2.3;;;;;;
67700;SPS30;55380;54.156;18.708;2023-05-07T10:24:03;2.5;;2.5;2.4;;;;;;
67700;SPS30;55380;54.156;18.708;2023-05-07T10:26:00;2.4;;2.4;2.3;;;;;;
67700;SPS30;55380;54.156;18.708;2023-05-07T10:28:01;2.7;;2.7;2.6;;;;;;
67700;SPS30;55380;54.156;18.708;2023-05-07T10:30:03;2.3;;2.3;2.1;;;;;;
67700;SPS30;55380;54.156;18.708;2023-05-07T10:32:05;2.3;;2.3;2.2;;;;;;
67700;SPS30;55380;54.156;18.708;2023-05-07T10:34:00;2.4;;2.4;2.3;;;;;;
67700;SPS30;55380;54.156;18.708;2023-05-07T10:36:00;2.9;;2.9;2.7;;;;;;
67700;SPS30;55380;54.156;18.708;2023-05-07T10:38:00;2.4;;2.4;2.2;;;;;;
67700;SPS30;55380;54.156;18.708;2023-05-07T10:40:00;2.2;;2.2;2.1;;;;;;
67700;SPS30;55380;54.156;18.708;2023-05-07T10:42:07;3.0;;3.0;2.8;;;;;;
67700;SPS30;55380;54.156;18.708;2023-05-07T10:44:00;2.6;;2.6;2.4;;;;;;
67700;SPS30;55380;54.156;18.708;2023-05-07T11:00:00;2.7;;2.7;2.6;;;;;;
67700;SPS30;55380;54.156;18.708;2023-05-07T11:02:00;2.5;;2.5;2.3;;;;;;
67700;SPS30;55380;54.156;18.708;2023-05-07T11:08:00;7.4;;7.4;7.0;;;;;;
67700;SPS30;55380;54.156;18.708;2023-05-07T11:10:01;2.2;;2.2;2.1;;;;;;
67700;SPS30;55380;54.156;18.708;2023-05-07T11:12:00;3.0;;3.0;2.9;;;;;;
67700;SPS30;55380;54.156;18.708;2023-05-07T11:14:00;2.7;;2.7;2.6;;;;;;
67700;SPS30;55380;54.156;18.708;2023-05-07T11:16:00;2.2;;2.2;2.1;;;;;;
67700;SPS30;55380;54.156;18.708;2023-05-07T11:18:00;2.2;;2.2;2.1;;;;;;
67700;SPS30;55380;54.156;18.708;2023-05-07T11:20:00;10.4;;10.4;9.8;;;;;;
67700;SPS30;55380;54.156;18.708;2023-05-07T11:22:00;7.6;;7.6;7.2;;;;;;